sensor_id;sensor_type;location;lat;lon;timestamp;temperature;humidity
20319;DHT22;10317;47.254;11.314;2023-02-12T00:01:27;-2.40;99.90
20319;DHT22;10317;47.254;11.314;2023-02-12T00:03:53;-2.40;99.90
20319;DHT22;10317;47.254;11.314;2023-02-12T00:06:19;-2.40;99.90
20319;DHT22;10317;47.254;11.314;2023-02-12T00:44:39;-2.40;99.90
20319;DHT22;10317;47.254;11.314;2023-02-12T01:19:36;-2.70;99.90
20319;DHT22;10317;47.254;11.314;2023-02-12T01:22:02;-2.80;99.90
20319;DHT22;10317;47.254;11.314;2023-02-12T01:24:28;-2.80;99.90
20319;DHT22;10317;47.254;11.314;2023-02-12T01:26:54;-2.80;99.90
20319;DHT22;10317;47.254;11.314;2023-02-12T01:29:19;-2.80;99.90
20319;DHT22;10317;47.254;11.314;2023-02-12T01:31:45;-2.90;99.90
20319;DHT22;10317;47.254;11.314;2023-02-12T01:34:11;-2.70;99.90
20319;DHT22;10317;47.254;11.314;2023-02-12T01:36:38;-2.80;99.90
20319;DHT22;10317;47.254;11.314;2023-02-12T01:39:05;-2.80;99.90
20319;DHT22;10317;47.254;11.314;2023-02-12T01:41:34;-2.80;99.90
20319;DHT22;10317;47.254;11.314;2023-02-12T01:44:21;-2.90;99.90
20319;DHT22;10317;47.254;11.314;2023-02-12T01:46:49;-2.90;99.90
20319;DHT22;10317;47.254;11.314;2023-02-12T01:49:28;-2.90;99.90
20319;DHT22;10317;47.254;11.314;2023-02-12T01:54:32;-3.00;99.90
20319;DHT22;10317;47.254;11.314;2023-02-12T01:57:01;-3.10;99.90
20319;DHT22;10317;47.254;11.314;2023-02-12T01:59:28;-3.10;99.90
20319;DHT22;10317;47.254;11.314;2023-02-12T02:01:54;-3.10;99.90
20319;DHT22;10317;47.254;11.314;2023-02-12T02:04:22;-3.00;99.90
20319;DHT22;10317;47.254;11.314;2023-02-12T02:06:56;-3.10;99.90
20319;DHT22;10317;47.254;11.314;2023-02-12T02:09:23;-3.20;99.90
20319;DHT22;10317;47.254;11.314;2023-02-12T02:11:49;-3.10;99.90
20319;DHT22;10317;47.254;11.314;2023-02-12T02:14:34;-3.20;99.90
20319;DHT22;10317;47.254;11.314;2023-02-12T02:36:23;-3.40;99.90
20319;DHT22;10317;47.254;11.314;2023-02-12T02:41:34;-3.50;99.90
20319;DHT22;10317;47.254;11.314;2023-02-12T02:44:08;-3.50;99.90
20319;DHT22;10317;47.254;11.314;2023-02-12T02:46:45;-3.50;99.90
20319;DHT22;10317;47.254;11.314;2023-02-12T02:49:20;-3.50;99.90
20319;DHT22;10317;47.254;11.314;2023-02-12T02:51:55;-3.50;99.90
20319;DHT22;10317;47.254;11.314;2023-02-12T02:57:20;-3.50;99.90
20319;DHT22;10317;47.254;11.314;2023-02-12T03:00:00;-3.60;99.90
20319;DHT22;10317;47.254;11.314;2023-02-12T03:02:33;-3.60;99.90
20319;DHT22;10317;47.254;11.314;2023-02-12T03:05:14;-3.60;99.90
20319;DHT22;10317;47.254;11.314;2023-02-12T03:07:49;-3.60;99.90
20319;DHT22;10317;47.254;11.314;2023-02-12T03:10:20;-3.60;99.90
20319;DHT22;10317;47.254;11.314;2023-02-12T03:12:54;-3.70;99.90
20319;DHT22;10317;47.254;11.314;2023-02-12T03:15:43;-3.70;99.90
20319;DHT22;10317;47.254;11.314;2023-02-12T03:18:19;-3.70;99.90
20319;DHT22;10317;47.254;11.314;2023-02-12T03:20:49;-3.80;99.90
20319;DHT22;10317;47.254;11.314;2023-02-12T03:24:06;-3.80;99.90
20319;DHT22;10317;47.254;11.314;2023-02-12T03:26:20;-3.80;99.90
20319;DHT22;10317;47.254;11.314;2023-02-12T03:28:46;-3.90;99.90
20319;DHT22;10317;47.254;11.314;2023-02-12T03:31:33;-3.90;99.90
20319;DHT22;10317;47.254;11.314;2023-02-12T03:37:34;-3.80;99.90
20319;DHT22;10317;47.254;11.314;2023-02-12T03:42:31;-3.80;99.90
20319;DHT22;10317;47.254;11.314;2023-02-12T03:45:21;-3.90;99.90
20319;DHT22;10317;47.254;11.314;2023-02-12T03:47:55;-3.90;99.90
20319;DHT22;10317;47.254;11.314;2023-02-12T03:53:09;-3.90;99.90
20319;DHT22;10317;47.254;11.314;2023-02-12T03:55:39;-4.00;99.90
20319;DHT22;10317;47.254;11.314;2023-02-12T03:58:08;-4.00;99.90
20319;DHT22;10317;47.254;11.314;2023-02-12T04:00:37;-4.00;99.90
20319;DHT22;10317;47.254;11.314;2023-02-12T04:03:04;-4.00;99.90
20319;DHT22;10317;47.254;11.314;2023-02-12T04:05:30;-4.10;99.90
20319;DHT22;10317;47.254;11.314;2023-02-12T04:07:58;-4.10;99.90
20319;DHT22;10317;47.254;11.314;2023-02-12T04:10:41;-4.20;99.90
20319;DHT22;10317;47.254;11.314;2023-02-12T04:13:20;-4.10;99.90
20319;DHT22;10317;47.254;11.314;2023-02-12T04:18:56;-4.10;99.90
20319;DHT22;10317;47.254;11.314;2023-02-12T04:21:47;-4.10;99.90
20319;DHT22;10317;47.254;11.314;2023-02-12T04:27:24;-4.20;99.90
20319;DHT22;10317;47.254;11.314;2023-02-12T04:29:56;-4.20;99.90
20319;DHT22;10317;47.254;11.314;2023-02-12T04:32:27;-4.20;99.90
20319;DHT22;10317;47.254;11.314;2023-02-12T04:35:33;-4.20;99.90
20319;DHT22;10317;47.254;11.314;2023-02-12T04:38:11;-4.20;99.90
20319;DHT22;10317;47.254;11.314;2023-02-12T04:40:39;-4.20;99.90
20319;DHT22;10317;47.254;11.314;2023-02-12T04:43:06;-4.20;99.90
20319;DHT22;10317;47.254;11.314;2023-02-12T04:45:33;-4.20;99.90
20319;DHT22;10317;47.254;11.314;2023-02-12T04:47:59;-4.30;99.90
20319;DHT22;10317;47.254;11.314;2023-02-12T04:50:26;-4.30;99.90
20319;DHT22;10317;47.254;11.314;2023-02-12T04:52:53;-4.30;99.90
20319;DHT22;10317;47.254;11.314;2023-02-12T04:55:18;-4.20;99.90
20319;DHT22;10317;47.254;11.314;2023-02-12T04:57:44;-4.30;99.90
20319;DHT22;10317;47.254;11.314;2023-02-12T05:00:13;-4.30;99.90
20319;DHT22;10317;47.254;11.314;2023-02-12T05:02:39;-4.40;99.90
20319;DHT22;10317;47.254;11.314;2023-02-12T05:05:05;-4.40;99.90
20319;DHT22;10317;47.254;11.314;2023-02-12T05:07:31;-4.40;99.90
20319;DHT22;10317;47.254;11.314;2023-02-12T05:09:57;-4.40;99.90
20319;DHT22;10317;47.254;11.314;2023-02-12T05:12:22;-4.30;99.90
20319;DHT22;10317;47.254;11.314;2023-02-12T05:14:48;-4.30;99.90
20319;DHT22;10317;47.254;11.314;2023-02-12T05:17:14;-4.30;99.90
20319;DHT22;10317;47.254;11.314;2023-02-12T05:19:39;-4.30;99.90
20319;DHT22;10317;47.254;11.314;2023-02-12T05:22:05;-4.30;99.90
20319;DHT22;10317;47.254;11.314;2023-02-12T05:24:31;-4.30;99.90
20319;DHT22;10317;47.254;11.314;2023-02-12T05:26:56;-4.30;99.90
20319;DHT22;10317;47.254;11.314;2023-02-12T05:29:22;-4.30;99.90
20319;DHT22;10317;47.254;11.314;2023-02-12T05:31:48;-4.30;99.90
20319;DHT22;10317;47.254;11.314;2023-02-12T05:34:14;-4.30;99.90
20319;DHT22;10317;47.254;11.314;2023-02-12T05:36:40;-4.30;99.90
20319;DHT22;10317;47.254;11.314;2023-02-12T05:39:07;-4.30;99.90
20319;DHT22;10317;47.254;11.314;2023-02-12T05:41:35;-4.40;99.90
20319;DHT22;10317;47.254;11.314;2023-02-12T05:44:04;-4.40;99.90
20319;DHT22;10317;47.254;11.314;2023-02-12T05:46:31;-4.40;99.90
20319;DHT22;10317;47.254;11.314;2023-02-12T05:48:58;-4.40;99.90
20319;DHT22;10317;47.254;11.314;2023-02-12T05:51:26;-4.50;99.90
20319;DHT22;10317;47.254;11.314;2023-02-12T05:53:59;-4.50;99.90
20319;DHT22;10317;47.254;11.314;2023-02-12T05:56:32;-4.50;99.90
20319;DHT22;10317;47.254;11.314;2023-02-12T05:59:12;-4.60;99.90
20319;DHT22;10317;47.254;11.314;2023-02-12T06:01:50;-4.60;99.90
20319;DHT22;10317;47.254;11.314;2023-02-12T06:04:23;-4.50;99.90
20319;DHT22;10317;47.254;11.314;2023-02-12T06:06:51;-4.50;99.90
20319;DHT22;10317;47.254;11.314;2023-02-12T06:09:18;-4.50;99.90
20319;DHT22;10317;47.254;11.314;2023-02-12T06:11:44;-4.60;99.90
20319;DHT22;10317;47.254;11.314;2023-02-12T06:14:16;-4.60;99.90
20319;DHT22;10317;47.254;11.314;2023-02-12T06:16:47;-4.60;99.90
20319;DHT22;10317;47.254;11.314;2023-02-12T06:19:13;-4.60;99.90
20319;DHT22;10317;47.254;11.314;2023-02-12T06:21:39;-4.60;99.90
20319;DHT22;10317;47.254;11.314;2023-02-12T06:24:05;-4.60;99.90
20319;DHT22;10317;47.254;11.314;2023-02-12T06:26:45;-4.60;99.90
20319;DHT22;10317;47.254;11.314;2023-02-12T06:29:13;-4.60;99.90
20319;DHT22;10317;47.254;11.314;2023-02-12T06:31:39;-4.60;99.90
20319;DHT22;10317;47.254;11.314;2023-02-12T06:34:11;-4.70;99.90
20319;DHT22;10317;47.254;11.314;2023-02-12T06:36:39;-4.70;99.90
20319;DHT22;10317;47.254;11.314;2023-02-12T06:39:06;-4.70;99.90
20319;DHT22;10317;47.254;11.314;2023-02-12T06:41:43;-4.70;99.90
20319;DHT22;10317;47.254;11.314;2023-02-12T06:44:12;-4.70;99.90
20319;DHT22;10317;47.254;11.314;2023-02-12T06:46:37;-4.70;99.90
20319;DHT22;10317;47.254;11.314;2023-02-12T06:52:40;-4.70;99.90
20319;DHT22;10317;47.254;11.314;2023-02-12T06:55:06;-4.70;99.90
20319;DHT22;10317;47.254;11.314;2023-02-12T06:57:33;-4.60;99.90
20319;DHT22;10317;47.254;11.314;2023-02-12T06:59:59;-4.60;99.90
20319;DHT22;10317;47.254;11.314;2023-02-12T07:02:24;-4.60;99.90
20319;DHT22;10317;47.254;11.314;2023-02-12T07:04:50;-4.60;99.90
20319;DHT22;10317;47.254;11.314;2023-02-12T07:07:16;-4.60;99.90
20319;DHT22;10317;47.254;11.314;2023-02-12T07:09:41;-4.50;99.90
20319;DHT22;10317;47.254;11.314;2023-02-12T07:12:07;-4.50;99.90
20319;DHT22;10317;47.254;11.314;2023-02-12T07:14:33;-4.50;99.90
20319;DHT22;10317;47.254;11.314;2023-02-12T07:16:58;-4.50;99.90
20319;DHT22;10317;47.254;11.314;2023-02-12T07:19:28;-4.40;99.90
20319;DHT22;10317;47.254;11.314;2023-02-12T07:21:54;-4.30;99.90
20319;DHT22;10317;47.254;11.314;2023-02-12T07:24:20;-4.30;99.90
20319;DHT22;10317;47.254;11.314;2023-02-12T07:26:45;-4.20;99.90
20319;DHT22;10317;47.254;11.314;2023-02-12T07:29:12;-4.10;99.90
20319;DHT22;10317;47.254;11.314;2023-02-12T07:31:38;-4.00;99.90
20319;DHT22;10317;47.254;11.314;2023-02-12T07:34:04;-3.90;99.90
20319;DHT22;10317;47.254;11.314;2023-02-12T07:36:31;-3.80;99.90
20319;DHT22;10317;47.254;11.314;2023-02-12T07:38:57;-3.80;99.90
20319;DHT22;10317;47.254;11.314;2023-02-12T07:41:41;-3.70;99.90
20319;DHT22;10317;47.254;11.314;2023-02-12T07:44:09;-3.70;99.90
20319;DHT22;10317;47.254;11.314;2023-02-12T07:46:46;-3.60;99.90
20319;DHT22;10317;47.254;11.314;2023-02-12T07:49:15;-3.50;99.90
20319;DHT22;10317;47.254;11.314;2023-02-12T07:51:41;-3.40;99.90
20319;DHT22;10317;47.254;11.314;2023-02-12T07:54:09;-3.30;99.90
20319;DHT22;10317;47.254;11.314;2023-02-12T07:56:36;-3.20;99.90
20319;DHT22;10317;47.254;11.314;2023-02-12T07:59:15;-3.10;99.90
20319;DHT22;10317;47.254;11.314;2023-02-12T08:01:44;-3.10;99.90
20319;DHT22;10317;47.254;11.314;2023-02-12T08:04:20;-3.10;99.90
20319;DHT22;10317;47.254;11.314;2023-02-12T08:07:05;-3.10;99.90
20319;DHT22;10317;47.254;11.314;2023-02-12T08:09:31;-3.10;99.90
20319;DHT22;10317;47.254;11.314;2023-02-12T08:12:22;-3.00;99.90
20319;DHT22;10317;47.254;11.314;2023-02-12T08:14:48;-2.90;99.90
20319;DHT22;10317;47.254;11.314;2023-02-12T08:17:14;-2.80;99.90
20319;DHT22;10317;47.254;11.314;2023-02-12T08:19:40;-2.70;99.90
20319;DHT22;10317;47.254;11.314;2023-02-12T08:22:06;-2.50;99.90
20319;DHT22;10317;47.254;11.314;2023-02-12T08:25:09;-2.40;99.90
20319;DHT22;10317;47.254;11.314;2023-02-12T08:28:17;-2.20;99.90
20319;DHT22;10317;47.254;11.314;2023-02-12T08:31:56;-2.00;99.90
20319;DHT22;10317;47.254;11.314;2023-02-12T08:37:45;-1.80;99.90
20319;DHT22;10317;47.254;11.314;2023-02-12T08:40:10;-1.70;99.90
20319;DHT22;10317;47.254;11.314;2023-02-12T08:43:14;-1.70;99.90
20319;DHT22;10317;47.254;11.314;2023-02-12T08:45:39;-1.60;99.90
20319;DHT22;10317;47.254;11.314;2023-02-12T08:48:05;-1.50;99.90
20319;DHT22;10317;47.254;11.314;2023-02-12T08:50:31;-1.40;99.90
20319;DHT22;10317;47.254;11.314;2023-02-12T08:52:58;-1.20;99.90
20319;DHT22;10317;47.254;11.314;2023-02-12T08:55:23;-1.00;99.90
20319;DHT22;10317;47.254;11.314;2023-02-12T08:57:49;-0.90;99.90
20319;DHT22;10317;47.254;11.314;2023-02-12T09:00:15;-0.80;99.90
20319;DHT22;10317;47.254;11.314;2023-02-12T09:02:41;-0.60;99.90
20319;DHT22;10317;47.254;11.314;2023-02-12T09:05:06;-0.50;99.90
20319;DHT22;10317;47.254;11.314;2023-02-12T09:07:32;-0.30;99.90
20319;DHT22;10317;47.254;11.314;2023-02-12T09:09:58;-0.20;99.90
20319;DHT22;10317;47.254;11.314;2023-02-12T09:15:44;0.00;99.90
20319;DHT22;10317;47.254;11.314;2023-02-12T09:21:42;0.40;99.90
20319;DHT22;10317;47.254;11.314;2023-02-12T09:24:09;0.50;99.90
20319;DHT22;10317;47.254;11.314;2023-02-12T09:26:34;0.60;99.90
20319;DHT22;10317;47.254;11.314;2023-02-12T09:29:09;0.90;99.90
20319;DHT22;10317;47.254;11.314;2023-02-12T09:31:38;1.00;99.90
20319;DHT22;10317;47.254;11.314;2023-02-12T09:34:15;1.30;99.90
20319;DHT22;10317;47.254;11.314;2023-02-12T09:36:43;1.90;99.90
20319;DHT22;10317;47.254;11.314;2023-02-12T09:39:09;2.20;99.90
20319;DHT22;10317;47.254;11.314;2023-02-12T09:41:59;2.50;99.90
20319;DHT22;10317;47.254;11.314;2023-02-12T09:50:03;3.50;99.90
20319;DHT22;10317;47.254;11.314;2023-02-12T09:52:30;4.00;99.90
20319;DHT22;10317;47.254;11.314;2023-02-12T09:54:58;4.20;99.90
20319;DHT22;10317;47.254;11.314;2023-02-12T09:57:31;4.20;99.90
20319;DHT22;10317;47.254;11.314;2023-02-12T10:00:04;4.60;99.90
20319;DHT22;10317;47.254;11.314;2023-02-12T10:02:31;4.50;99.00
20319;DHT22;10317;47.254;11.314;2023-02-12T10:04:59;4.40;97.80
20319;DHT22;10317;47.254;11.314;2023-02-12T10:07:52;4.70;99.20
20319;DHT22;10317;47.254;11.314;2023-02-12T10:18:18;5.60;97.30
20319;DHT22;10317;47.254;11.314;2023-02-12T10:26:34;5.70;96.70
20319;DHT22;10317;47.254;11.314;2023-02-12T10:31:46;5.60;96.10
20319;DHT22;10317;47.254;11.314;2023-02-12T10:34:18;5.40;94.60
20319;DHT22;10317;47.254;11.314;2023-02-12T10:36:47;5.20;95.20
20319;DHT22;10317;47.254;11.314;2023-02-12T10:39:25;5.20;96.30
20319;DHT22;10317;47.254;11.314;2023-02-12T10:41:54;5.10;96.00
20319;DHT22;10317;47.254;11.314;2023-02-12T10:44:20;5.10;96.20
20319;DHT22;10317;47.254;11.314;2023-02-12T10:46:46;5.20;96.70
20319;DHT22;10317;47.254;11.314;2023-02-12T10:49:14;5.10;92.90
20319;DHT22;10317;47.254;11.314;2023-02-12T10:54:48;5.00;96.70
20319;DHT22;10317;47.254;11.314;2023-02-12T10:57:18;5.10;97.20
20319;DHT22;10317;47.254;11.314;2023-02-12T10:59:45;5.10;96.70
20319;DHT22;10317;47.254;11.314;2023-02-12T11:02:28;5.20;96.90
20319;DHT22;10317;47.254;11.314;2023-02-12T11:04:55;5.30;96.60
20319;DHT22;10317;47.254;11.314;2023-02-12T11:07:23;5.20;96.60
20319;DHT22;10317;47.254;11.314;2023-02-12T11:09:52;5.20;95.60
20319;DHT22;10317;47.254;11.314;2023-02-12T11:12:35;5.20;96.10
20319;DHT22;10317;47.254;11.314;2023-02-12T11:15:29;5.40;96.90
20319;DHT22;10317;47.254;11.314;2023-02-12T11:18:01;5.50;96.60
20319;DHT22;10317;47.254;11.314;2023-02-12T11:28:25;5.90;95.60
20319;DHT22;10317;47.254;11.314;2023-02-12T11:31:00;6.10;95.50
20319;DHT22;10317;47.254;11.314;2023-02-12T11:33:35;6.20;94.60
20319;DHT22;10317;47.254;11.314;2023-02-12T11:36:23;6.40;95.10
20319;DHT22;10317;47.254;11.314;2023-02-12T11:38:54;6.50;94.40
20319;DHT22;10317;47.254;11.314;2023-02-12T11:41:40;6.60;93.50
20319;DHT22;10317;47.254;11.314;2023-02-12T11:46:46;7.00;93.10
20319;DHT22;10317;47.254;11.314;2023-02-12T11:49:28;7.00;92.10
20319;DHT22;10317;47.254;11.314;2023-02-12T11:51:56;7.00;92.40
20319;DHT22;10317;47.254;11.314;2023-02-12T11:54:26;7.20;92.10
20319;DHT22;10317;47.254;11.314;2023-02-12T11:56:53;7.30;91.60
20319;DHT22;10317;47.254;11.314;2023-02-12T12:02:03;7.40;90.80
20319;DHT22;10317;47.254;11.314;2023-02-12T12:04:32;7.50;91.00
20319;DHT22;10317;47.254;11.314;2023-02-12T12:07:08;7.40;88.00
20319;DHT22;10317;47.254;11.314;2023-02-12T12:15:47;7.50;83.90
20319;DHT22;10317;47.254;11.314;2023-02-12T12:18:46;7.50;83.50
20319;DHT22;10317;47.254;11.314;2023-02-12T12:32:55;8.00;82.10
20319;DHT22;10317;47.254;11.314;2023-02-12T12:35:37;8.10;83.80
20319;DHT22;10317;47.254;11.314;2023-02-12T12:38:27;8.20;84.50
20319;DHT22;10317;47.254;11.314;2023-02-12T12:40:57;8.20;82.90
20319;DHT22;10317;47.254;11.314;2023-02-12T12:44:41;8.40;82.30
20319;DHT22;10317;47.254;11.314;2023-02-12T12:46:46;8.50;82.20
20319;DHT22;10317;47.254;11.314;2023-02-12T12:49:44;8.60;80.90
20319;DHT22;10317;47.254;11.314;2023-02-12T12:57:36;8.90;81.00
20319;DHT22;10317;47.254;11.314;2023-02-12T13:00:30;8.90;79.90
20319;DHT22;10317;47.254;11.314;2023-02-12T13:08:32;9.20;79.10
20319;DHT22;10317;47.254;11.314;2023-02-12T13:13:36;9.20;74.20
20319;DHT22;10317;47.254;11.314;2023-02-12T13:16:27;9.20;72.60
20319;DHT22;10317;47.254;11.314;2023-02-12T13:26:53;9.40;65.70
20319;DHT22;10317;47.254;11.314;2023-02-12T13:29:31;9.40;69.90
20319;DHT22;10317;47.254;11.314;2023-02-12T13:32:27;9.50;72.40
20319;DHT22;10317;47.254;11.314;2023-02-12T13:34:52;9.50;71.30
20319;DHT22;10317;47.254;11.314;2023-02-12T13:37:40;9.50;67.00
20319;DHT22;10317;47.254;11.314;2023-02-12T13:40:24;9.50;71.90
20319;DHT22;10317;47.254;11.314;2023-02-12T13:43:02;9.50;69.30
20319;DHT22;10317;47.254;11.314;2023-02-12T13:45:43;9.50;71.90
20319;DHT22;10317;47.254;11.314;2023-02-12T13:56:37;9.40;69.30
20319;DHT22;10317;47.254;11.314;2023-02-12T14:02:00;9.40;63.60
20319;DHT22;10317;47.254;11.314;2023-02-12T14:04:45;9.40;69.90
20319;DHT22;10317;47.254;11.314;2023-02-12T14:07:15;9.40;65.60
20319;DHT22;10317;47.254;11.314;2023-02-12T14:14:46;9.40;70.00
20319;DHT22;10317;47.254;11.314;2023-02-12T14:46:46;7.90;76.40
20319;DHT22;10317;47.254;11.314;2023-02-12T14:57:32;7.50;75.70
20319;DHT22;10317;47.254;11.314;2023-02-12T15:02:27;7.10;78.00
20319;DHT22;10317;47.254;11.314;2023-02-12T15:04:57;7.00;77.90
20319;DHT22;10317;47.254;11.314;2023-02-12T15:07:47;7.00;78.30
20319;DHT22;10317;47.254;11.314;2023-02-12T15:10:19;6.90;78.20
20319;DHT22;10317;47.254;11.314;2023-02-12T15:12:52;6.90;77.80
20319;DHT22;10317;47.254;11.314;2023-02-12T15:15:32;6.70;78.80
20319;DHT22;10317;47.254;11.314;2023-02-12T15:18:23;6.70;78.90
20319;DHT22;10317;47.254;11.314;2023-02-12T15:23:43;6.50;79.50
20319;DHT22;10317;47.254;11.314;2023-02-12T15:26:21;6.40;79.80
20319;DHT22;10317;47.254;11.314;2023-02-12T15:28:50;6.20;80.10
20319;DHT22;10317;47.254;11.314;2023-02-12T15:31:25;6.10;80.60
20319;DHT22;10317;47.254;11.314;2023-02-12T15:33:52;5.90;81.20
20319;DHT22;10317;47.254;11.314;2023-02-12T15:36:22;5.80;81.60
20319;DHT22;10317;47.254;11.314;2023-02-12T15:38:54;5.60;82.10
20319;DHT22;10317;47.254;11.314;2023-02-12T15:41:38;5.50;83.00
20319;DHT22;10317;47.254;11.314;2023-02-12T15:44:25;5.30;83.20
20319;DHT22;10317;47.254;11.314;2023-02-12T15:49:20;5.10;84.00
20319;DHT22;10317;47.254;11.314;2023-02-12T15:51:47;5.00;84.40
20319;DHT22;10317;47.254;11.314;2023-02-12T15:54:16;5.00;84.70
20319;DHT22;10317;47.254;11.314;2023-02-12T15:56:43;4.90;85.20
20319;DHT22;10317;47.254;11.314;2023-02-12T15:59:18;4.70;86.10
20319;DHT22;10317;47.254;11.314;2023-02-12T16:01:52;4.70;85.60
20319;DHT22;10317;47.254;11.314;2023-02-12T16:04:19;4.60;86.10
20319;DHT22;10317;47.254;11.314;2023-02-12T16:06:44;4.50;86.90
20319;DHT22;10317;47.254;11.314;2023-02-12T16:09:16;4.50;86.80
20319;DHT22;10317;47.254;11.314;2023-02-12T16:11:44;4.40;87.00
20319;DHT22;10317;47.254;11.314;2023-02-12T16:14:36;4.30;87.40
20319;DHT22;10317;47.254;11.314;2023-02-12T16:20:18;4.10;89.50
20319;DHT22;10317;47.254;11.314;2023-02-12T16:22:47;3.90;89.80
20319;DHT22;10317;47.254;11.314;2023-02-12T16:25:22;3.80;89.90
20319;DHT22;10317;47.254;11.314;2023-02-12T16:28:16;3.80;90.40
20319;DHT22;10317;47.254;11.314;2023-02-12T16:30:45;3.70;90.60
20319;DHT22;10317;47.254;11.314;2023-02-12T16:33:40;3.60;90.60
20319;DHT22;10317;47.254;11.314;2023-02-12T16:38:51;3.40;91.40
20319;DHT22;10317;47.254;11.314;2023-02-12T16:43:43;3.30;91.70
20319;DHT22;10317;47.254;11.314;2023-02-12T17:59:39;1.00;97.10
20319;DHT22;10317;47.254;11.314;2023-02-12T18:02:05;0.90;97.30
20319;DHT22;10317;47.254;11.314;2023-02-12T18:04:32;0.90;97.60
20319;DHT22;10317;47.254;11.314;2023-02-12T18:07:07;0.80;97.60
20319;DHT22;10317;47.254;11.314;2023-02-12T18:09:35;0.80;98.20
20319;DHT22;10317;47.254;11.314;2023-02-12T18:12:00;0.80;98.20
20319;DHT22;10317;47.254;11.314;2023-02-12T18:14:26;0.70;98.20
20319;DHT22;10317;47.254;11.314;2023-02-12T18:16:53;0.60;98.30
20319;DHT22;10317;47.254;11.314;2023-02-12T18:19:19;0.60;98.70
20319;DHT22;10317;47.254;11.314;2023-02-12T18:21:44;0.50;99.00
20319;DHT22;10317;47.254;11.314;2023-02-12T18:24:10;0.50;99.40
20319;DHT22;10317;47.254;11.314;2023-02-12T18:26:35;0.40;99.80
20319;DHT22;10317;47.254;11.314;2023-02-12T18:29:01;0.40;99.70
20319;DHT22;10317;47.254;11.314;2023-02-12T18:31:28;0.40;99.90
20319;DHT22;10317;47.254;11.314;2023-02-12T18:33:54;0.50;99.90
20319;DHT22;10317;47.254;11.314;2023-02-12T18:36:20;0.30;99.90
20319;DHT22;10317;47.254;11.314;2023-02-12T18:38:49;0.30;99.90
20319;DHT22;10317;47.254;11.314;2023-02-12T18:41:17;0.30;99.90
20319;DHT22;10317;47.254;11.314;2023-02-12T18:43:43;0.10;99.90
20319;DHT22;10317;47.254;11.314;2023-02-12T18:46:20;0.10;99.90
20319;DHT22;10317;47.254;11.314;2023-02-12T18:48:46;0.10;99.90
20319;DHT22;10317;47.254;11.314;2023-02-12T18:51:15;0.00;99.90
20319;DHT22;10317;47.254;11.314;2023-02-12T18:53:41;0.00;99.90
20319;DHT22;10317;47.254;11.314;2023-02-12T18:56:08;-0.10;99.90
20319;DHT22;10317;47.254;11.314;2023-02-12T18:58:35;-0.20;99.90
20319;DHT22;10317;47.254;11.314;2023-02-12T19:01:10;-0.20;99.90
20319;DHT22;10317;47.254;11.314;2023-02-12T19:03:35;-0.20;99.90
20319;DHT22;10317;47.254;11.314;2023-02-12T19:06:02;-0.20;99.90
20319;DHT22;10317;47.254;11.314;2023-02-12T19:08:28;-0.20;99.90
20319;DHT22;10317;47.254;11.314;2023-02-12T19:10:54;-0.30;99.90
20319;DHT22;10317;47.254;11.314;2023-02-12T19:13:19;-0.40;99.90
20319;DHT22;10317;47.254;11.314;2023-02-12T19:15:45;-0.40;99.90
20319;DHT22;10317;47.254;11.314;2023-02-12T19:18:11;-0.40;99.90
20319;DHT22;10317;47.254;11.314;2023-02-12T19:20:39;-0.40;99.90
20319;DHT22;10317;47.254;11.314;2023-02-12T19:23:04;-0.50;99.90
20319;DHT22;10317;47.254;11.314;2023-02-12T19:25:36;-0.60;99.90
20319;DHT22;10317;47.254;11.314;2023-02-12T19:28:11;-0.60;99.90
20319;DHT22;10317;47.254;11.314;2023-02-12T19:30:38;-0.60;99.90
20319;DHT22;10317;47.254;11.314;2023-02-12T19:33:04;-0.70;99.90
20319;DHT22;10317;47.254;11.314;2023-02-12T19:35:30;-0.70;99.90
20319;DHT22;10317;47.254;11.314;2023-02-12T19:37:56;-0.60;99.90
20319;DHT22;10317;47.254;11.314;2023-02-12T19:40:21;-0.80;99.90
20319;DHT22;10317;47.254;11.314;2023-02-12T19:42:47;-0.80;99.90
20319;DHT22;10317;47.254;11.314;2023-02-12T19:45:13;-0.80;99.90
20319;DHT22;10317;47.254;11.314;2023-02-12T19:47:38;-0.80;99.90
20319;DHT22;10317;47.254;11.314;2023-02-12T19:50:04;-0.80;99.90
20319;DHT22;10317;47.254;11.314;2023-02-12T19:52:30;-0.80;99.90
20319;DHT22;10317;47.254;11.314;2023-02-12T19:54:56;-0.80;99.90
20319;DHT22;10317;47.254;11.314;2023-02-12T19:57:23;-0.90;99.90
20319;DHT22;10317;47.254;11.314;2023-02-12T19:59:49;-0.90;99.90
20319;DHT22;10317;47.254;11.314;2023-02-12T20:02:15;-0.80;99.90
20319;DHT22;10317;47.254;11.314;2023-02-12T20:04:43;-0.90;99.90
20319;DHT22;10317;47.254;11.314;2023-02-12T20:07:09;-0.90;99.90
20319;DHT22;10317;47.254;11.314;2023-02-12T20:09:35;-0.90;99.90
20319;DHT22;10317;47.254;11.314;2023-02-12T20:12:01;-0.90;99.90
20319;DHT22;10317;47.254;11.314;2023-02-12T20:14:27;-1.00;99.90
20319;DHT22;10317;47.254;11.314;2023-02-12T20:16:54;-1.00;99.90
20319;DHT22;10317;47.254;11.314;2023-02-12T20:19:24;-1.00;99.90
20319;DHT22;10317;47.254;11.314;2023-02-12T20:21:51;-1.00;99.90
20319;DHT22;10317;47.254;11.314;2023-02-12T20:24:25;-1.00;99.90
20319;DHT22;10317;47.254;11.314;2023-02-12T20:26:51;-1.10;99.90
20319;DHT22;10317;47.254;11.314;2023-02-12T20:29:17;-1.10;99.90
20319;DHT22;10317;47.254;11.314;2023-02-12T20:31:43;-1.10;99.90
20319;DHT22;10317;47.254;11.314;2023-02-12T20:34:16;-1.00;99.90
20319;DHT22;10317;47.254;11.314;2023-02-12T20:36:43;-1.10;99.90
20319;DHT22;10317;47.254;11.314;2023-02-12T20:39:13;-1.10;99.90
20319;DHT22;10317;47.254;11.314;2023-02-12T20:41:39;-1.10;99.90
20319;DHT22;10317;47.254;11.314;2023-02-12T20:44:07;-1.20;99.90
20319;DHT22;10317;47.254;11.314;2023-02-12T20:46:33;-1.20;99.90
20319;DHT22;10317;47.254;11.314;2023-02-12T20:49:07;-1.20;99.90
20319;DHT22;10317;47.254;11.314;2023-02-12T20:51:33;-1.10;99.90
20319;DHT22;10317;47.254;11.314;2023-02-12T20:54:02;-1.20;99.90
20319;DHT22;10317;47.254;11.314;2023-02-12T20:56:30;-1.10;99.90
20319;DHT22;10317;47.254;11.314;2023-02-12T20:59:11;-1.30;99.90
20319;DHT22;10317;47.254;11.314;2023-02-12T21:02:05;-1.30;99.90
20319;DHT22;10317;47.254;11.314;2023-02-12T21:04:52;-1.30;99.90
20319;DHT22;10317;47.254;11.314;2023-02-12T21:30:02;-1.60;99.90
20319;DHT22;10317;47.254;11.314;2023-02-12T21:32:27;-1.60;99.90
20319;DHT22;10317;47.254;11.314;2023-02-12T21:34:53;-1.60;99.90
20319;DHT22;10317;47.254;11.314;2023-02-12T21:37:19;-1.60;99.90
20319;DHT22;10317;47.254;11.314;2023-02-12T21:39:44;-1.70;99.90
20319;DHT22;10317;47.254;11.314;2023-02-12T21:42:10;-1.70;99.90
20319;DHT22;10317;47.254;11.314;2023-02-12T21:44:35;-1.70;99.90
20319;DHT22;10317;47.254;11.314;2023-02-12T21:47:01;-1.70;99.90
20319;DHT22;10317;47.254;11.314;2023-02-12T22:11:29;-1.90;99.90
20319;DHT22;10317;47.254;11.314;2023-02-12T22:13:55;-2.00;99.90
20319;DHT22;10317;47.254;11.314;2023-02-12T22:16:25;-2.00;99.90
20319;DHT22;10317;47.254;11.314;2023-02-12T22:19:06;-2.00;99.90